sensor_id;sensor_type;location;lat;lon;timestamp;pressure;altitude;pressure_sealevel;temperature;humidity
3832;BME280;12460;42.662;23.288;2023-02-11T00:00:42;96178.22;;;-0.51;47.76
3832;BME280;12460;42.662;23.288;2023-02-11T00:15:48;96169.78;;;-0.57;47.79
3832;BME280;12460;42.662;23.288;2023-02-11T00:30:54;96180.81;;;-0.66;47.29
3832;BME280;12460;42.662;23.288;2023-02-11T00:46:00;96173.28;;;-0.75;47.42
3832;BME280;12460;42.662;23.288;2023-02-11T01:01:06;96157.59;;;-0.87;47.41
3832;BME280;12460;42.662;23.288;2023-02-11T01:16:11;96145.31;;;-0.95;47.70
3832;BME280;12460;42.662;23.288;2023-02-11T01:31:16;96154.50;;;-0.98;48.02
3832;BME280;12460;42.662;23.288;2023-02-11T01:46:34;96139.75;;;-1.04;47.84
3832;BME280;12460;42.662;23.288;2023-02-11T02:01:45;96141.09;;;-1.17;47.51
3832;BME280;12460;42.662;23.288;2023-02-11T02:16:51;96142.63;;;-1.25;47.47
3832;BME280;12460;42.662;23.288;2023-02-11T02:47:23;96134.88;;;-1.49;47.66
3832;BME280;12460;42.662;23.288;2023-02-11T03:02:32;96133.28;;;-1.59;47.50
3832;BME280;12460;42.662;23.288;2023-02-11T03:17:41;96132.06;;;-1.58;47.65
3832;BME280;12460;42.662;23.288;2023-02-11T03:32:50;96129.31;;;-1.58;47.13
3832;BME280;12460;42.662;23.288;2023-02-11T03:48:01;96126.38;;;-1.63;46.56
3832;BME280;12460;42.662;23.288;2023-02-11T04:03:08;96123.31;;;-1.65;46.29
3832;BME280;12460;42.662;23.288;2023-02-11T04:18:13;96124.97;;;-1.68;47.26
3832;BME280;12460;42.662;23.288;2023-02-11T04:33:18;96129.41;;;-1.70;46.86
3832;BME280;12460;42.662;23.288;2023-02-11T04:48:24;96111.72;;;-1.82;46.82
3832;BME280;12460;42.662;23.288;2023-02-11T05:03:29;96113.81;;;-1.95;47.51
3832;BME280;12460;42.662;23.288;2023-02-11T05:18:37;96098.75;;;-2.03;46.67
3832;BME280;12460;42.662;23.288;2023-02-11T05:33:42;96101.50;;;-2.03;47.11
3832;BME280;12460;42.662;23.288;2023-02-11T05:48:46;96100.66;;;-1.91;47.74
3832;BME280;12460;42.662;23.288;2023-02-11T06:03:52;96109.53;;;1.27;42.54
3832;BME280;12460;42.662;23.288;2023-02-11T06:18:57;96108.13;;;4.84;36.52
3832;BME280;12460;42.662;23.288;2023-02-11T06:34:02;96106.59;;;6.44;34.20
3832;BME280;12460;42.662;23.288;2023-02-11T06:49:06;96114.72;;;7.41;31.41
3832;BME280;12460;42.662;23.288;2023-02-11T07:04:12;96128.34;;;7.78;31.03
3832;BME280;12460;42.662;23.288;2023-02-11T07:19:20;96112.91;;;8.18;29.98
3832;BME280;12460;42.662;23.288;2023-02-11T07:34:24;96090.44;;;8.34;29.95
3832;BME280;12460;42.662;23.288;2023-02-11T07:49:29;96072.91;;;9.23;28.10
3832;BME280;12460;42.662;23.288;2023-02-11T08:04:33;96075.00;;;9.90;27.30
3832;BME280;12460;42.662;23.288;2023-02-11T08:19:38;96062.00;;;11.24;26.15
3832;BME280;12460;42.662;23.288;2023-02-11T08:34:43;96062.63;;;11.88;25.56
3832;BME280;12460;42.662;23.288;2023-02-11T08:49:48;96072.84;;;12.72;25.53
3832;BME280;12460;42.662;23.288;2023-02-11T09:04:52;96063.31;;;13.16;25.30
3832;BME280;12460;42.662;23.288;2023-02-11T09:19:57;96051.53;;;13.25;24.49
3832;BME280;12460;42.662;23.288;2023-02-11T09:35:02;96048.53;;;13.80;23.68
3832;BME280;12460;42.662;23.288;2023-02-11T09:50:17;96015.16;;;13.78;23.32
3832;BME280;12460;42.662;23.288;2023-02-11T10:05:36;95992.75;;;13.80;23.37
3832;BME280;12460;42.662;23.288;2023-02-11T10:21:05;95963.81;;;14.02;22.23
3832;BME280;12460;42.662;23.288;2023-02-11T10:36:18;95911.47;;;14.32;21.34
3832;BME280;12460;42.662;23.288;2023-02-11T10:51:28;95885.03;;;14.29;21.06
3832;BME280;12460;42.662;23.288;2023-02-11T11:06:34;95862.97;;;14.13;21.12
3832;BME280;12460;42.662;23.288;2023-02-11T11:21:52;95846.50;;;13.96;21.68
3832;BME280;12460;42.662;23.288;2023-02-11T11:36:59;95829.44;;;13.58;21.96
3832;BME280;12460;42.662;23.288;2023-02-11T13:08:49;95718.44;;;10.44;24.97
3832;BME280;12460;42.662;23.288;2023-02-11T13:39:19;95702.47;;;9.04;25.70
3832;BME280;12460;42.662;23.288;2023-02-11T13:54:28;95687.22;;;8.50;26.21
3832;BME280;12460;42.662;23.288;2023-02-11T14:09:37;95662.97;;;7.66;26.53
3832;BME280;12460;42.662;23.288;2023-02-11T14:24:57;95656.06;;;6.84;28.58
3832;BME280;12460;42.662;23.288;2023-02-11T14:40:17;95671.31;;;6.42;30.64
3832;BME280;12460;42.662;23.288;2023-02-11T14:55:29;95666.22;;;5.94;30.74
3832;BME280;12460;42.662;23.288;2023-02-11T15:10:42;95649.34;;;5.48;32.22
3832;BME280;12460;42.662;23.288;2023-02-11T15:25:47;95646.84;;;5.22;32.80
3832;BME280;12460;42.662;23.288;2023-02-11T15:41:02;95638.75;;;4.74;34.61
3832;BME280;12460;42.662;23.288;2023-02-11T15:56:12;95630.38;;;4.36;35.85
3832;BME280;12460;42.662;23.288;2023-02-11T16:11:25;95647.75;;;4.03;36.27
3832;BME280;12460;42.662;23.288;2023-02-11T16:26:36;95647.16;;;3.77;36.57
3832;BME280;12460;42.662;23.288;2023-02-11T16:41:46;95658.38;;;3.45;37.88
3832;BME280;12460;42.662;23.288;2023-02-11T16:56:51;95660.72;;;3.16;38.79
3832;BME280;12460;42.662;23.288;2023-02-11T17:11:55;95660.06;;;2.95;38.58
3832;BME280;12460;42.662;23.288;2023-02-11T17:27:00;95640.00;;;2.80;39.12
3832;BME280;12460;42.662;23.288;2023-02-11T17:42:06;95648.50;;;2.71;37.76
3832;BME280;12460;42.662;23.288;2023-02-11T17:57:11;95654.13;;;2.76;36.11
3832;BME280;12460;42.662;23.288;2023-02-11T18:12:16;95676.22;;;2.91;35.44
3832;BME280;12460;42.662;23.288;2023-02-11T18:27:30;95655.72;;;2.89;36.92
3832;BME280;12460;42.662;23.288;2023-02-11T18:42:33;95634.34;;;2.69;36.14
3832;BME280;12460;42.662;23.288;2023-02-11T18:57:37;95617.19;;;2.65;34.21
3832;BME280;12460;42.662;23.288;2023-02-11T19:12:43;95628.16;;;2.79;32.95
3832;BME280;12460;42.662;23.288;2023-02-11T19:27:46;95632.03;;;2.93;32.88
3832;BME280;12460;42.662;23.288;2023-02-11T19:42:50;95606.00;;;2.91;33.26
3832;BME280;12460;42.662;23.288;2023-02-11T19:57:53;95593.81;;;2.82;33.85
3832;BME280;12460;42.662;23.288;2023-02-11T20:12:57;95592.06;;;2.85;32.92
3832;BME280;12460;42.662;23.288;2023-02-11T20:28:00;95576.44;;;2.88;32.68
3832;BME280;12460;42.662;23.288;2023-02-11T20:43:06;95554.47;;;2.84;33.21
3832;BME280;12460;42.662;23.288;2023-02-11T20:58:10;95532.00;;;2.82;33.19
3832;BME280;12460;42.662;23.288;2023-02-11T21:13:14;95502.13;;;2.71;33.17
3832;BME280;12460;42.662;23.288;2023-02-11T21:28:18;95483.50;;;2.77;32.62
3832;BME280;12460;42.662;23.288;2023-02-11T21:43:27;95481.25;;;2.87;30.08
3832;BME280;12460;42.662;23.288;2023-02-11T21:58:31;95467.75;;;3.11;28.92
3832;BME280;12460;42.662;23.288;2023-02-11T22:13:36;95483.22;;;3.34;28.35
3832;BME280;12460;42.662;23.288;2023-02-11T22:28:42;95492.09;;;3.44;28.73
3832;BME280;12460;42.662;23.288;2023-02-11T22:43:47;95493.13;;;3.46;29.49
3832;BME280;12460;42.662;23.288;2023-02-11T22:58:56;95479.72;;;3.39;30.84
3832;BME280;12460;42.662;23.288;2023-02-11T23:14:01;95480.22;;;3.43;31.63
3832;BME280;12460;42.662;23.288;2023-02-11T23:29:07;95465.50;;;3.26;31.80
3832;BME280;12460;42.662;23.288;2023-02-11T23:44:12;95452.34;;;3.16;32.69
3832;BME280;12460;42.662;23.288;2023-02-11T23:59:17;95458.09;;;3.01;33.95
